createdAt,value
2023-03-22T00:02:26.421Z,1.43
2023-03-22T00:04:53.890Z,1.43
2023-03-22T00:07:20.837Z,1.17
2023-03-22T00:09:47.563Z,1.63
2023-03-22T00:12:14.424Z,1.93
2023-03-22T00:14:41.770Z,1.37
2023-03-22T00:17:08.543Z,1.10
2023-03-22T00:19:35.392Z,1.43
2023-03-22T00:22:03.730Z,2.13
2023-03-22T00:24:30.779Z,1.33
2023-03-22T00:26:58.567Z,2.00
2023-03-22T00:29:28.234Z,1.30
2023-03-22T00:31:56.250Z,1.50
2023-03-22T00:34:23.265Z,1.23
2023-03-22T00:36:51.820Z,1.27
2023-03-22T00:39:18.684Z,1.30
2023-03-22T00:41:45.518Z,1.67
2023-03-22T00:44:12.305Z,1.40
2023-03-22T00:46:39.071Z,1.17
2023-03-22T00:49:08.814Z,2.27
2023-03-22T00:51:35.979Z,2.10
2023-03-22T00:54:02.819Z,1.20
2023-03-22T00:56:29.686Z,1.17
2023-03-22T00:58:56.481Z,1.50
2023-03-22T01:01:23.443Z,1.20
2023-03-22T01:03:50.649Z,1.27
2023-03-22T01:06:18.103Z,1.23
2023-03-22T01:08:44.836Z,1.20
2023-03-22T01:11:11.622Z,1.77
2023-03-22T01:13:42.034Z,1.27
2023-03-22T01:16:12.813Z,1.60
2023-03-22T01:18:41.072Z,2.83
2023-03-22T01:21:17.888Z,1.60
2023-03-22T01:23:44.617Z,1.80
2023-03-22T01:26:11.351Z,3.03
2023-03-22T01:28:40.429Z,2.13
2023-03-22T01:31:07.570Z,1.70
2023-03-22T01:33:34.472Z,2.20
2023-03-22T01:36:01.399Z,1.87
2023-03-22T01:38:28.262Z,2.33
2023-03-22T01:40:55.579Z,1.37
2023-03-22T01:43:22.374Z,1.70
2023-03-22T01:45:51.541Z,1.57
2023-03-22T01:48:28.231Z,1.20
2023-03-22T01:51:25.458Z,2.10
2023-03-22T01:53:57.675Z,1.40
2023-03-22T01:56:29.921Z,1.67
2023-03-22T01:58:57.402Z,1.93
2023-03-22T02:01:25.993Z,1.30
2023-03-22T02:04:13.881Z,1.80
2023-03-22T02:06:41.353Z,1.50
2023-03-22T02:09:12.507Z,1.70
2023-03-22T02:11:43.870Z,1.60
2023-03-22T02:14:42.276Z,2.33
2023-03-22T02:17:45.497Z,1.30
2023-03-22T02:20:33.914Z,1.43
2023-03-22T02:23:40.585Z,1.40
2023-03-22T02:26:32.412Z,1.73
2023-03-22T02:29:39.231Z,1.17
2023-03-22T02:32:36.936Z,1.90
2023-03-22T02:35:15.642Z,1.77
2023-03-22T02:38:42.477Z,1.80
2023-03-22T02:41:36.416Z,1.60
2023-03-22T02:44:40.258Z,2.00
2023-03-22T02:47:34.894Z,2.50
2023-03-22T02:50:25.291Z,2.87
2023-03-22T02:53:19.074Z,2.77
2023-03-22T02:56:07.475Z,4.73
2023-03-22T02:58:49.085Z,3.57
2023-03-22T03:01:37.999Z,4.07
2023-03-22T03:04:12.773Z,3.67
2023-03-22T03:06:46.030Z,4.03
2023-03-22T03:09:18.399Z,5.20
2023-03-22T03:11:53.909Z,5.37
2023-03-22T03:14:32.543Z,4.73
2023-03-22T03:17:31.365Z,5.00
2023-03-22T03:20:29.959Z,4.80
2023-03-22T03:23:22.046Z,5.23
2023-03-22T03:26:28.365Z,6.03
2023-03-22T03:29:46.631Z,6.10
2023-03-22T03:32:22.380Z,6.67
2023-03-22T03:35:05.340Z,6.60
2023-03-22T03:38:02.828Z,6.37
2023-03-22T03:40:55.867Z,6.33
2023-03-22T03:43:25.416Z,7.10
2023-03-22T03:45:54.867Z,7.20
2023-03-22T03:48:27.960Z,6.83
2023-03-22T03:50:57.457Z,7.67
2023-03-22T03:53:25.086Z,6.73
2023-03-22T03:55:51.810Z,6.77
2023-03-22T03:58:18.793Z,7.23
2023-03-22T04:00:46.479Z,6.50
2023-03-22T04:03:14.434Z,5.93
2023-03-22T04:05:41.415Z,6.60
2023-03-22T04:08:09.189Z,7.17
2023-03-22T04:10:35.922Z,6.10
2023-03-22T04:13:02.654Z,7.13
2023-03-22T04:15:29.603Z,6.63
2023-03-22T04:17:56.810Z,6.50
2023-03-22T04:20:23.676Z,7.30
2023-03-22T04:22:50.396Z,6.17
2023-03-22T04:25:18.165Z,7.10
2023-03-22T04:27:50.922Z,7.10
2023-03-22T04:30:20.016Z,6.17
2023-03-22T04:32:48.342Z,6.57
2023-03-22T04:35:16.412Z,5.87
2023-03-22T04:37:43.266Z,6.50
2023-03-22T04:40:16.308Z,6.50
2023-03-22T04:42:45.492Z,6.20
2023-03-22T04:45:14.076Z,5.80
2023-03-22T04:47:41.048Z,6.60
2023-03-22T04:50:09.254Z,6.40
2023-03-22T04:52:38.223Z,6.27
2023-03-22T04:55:05.524Z,6.50
2023-03-22T04:57:32.347Z,5.60
2023-03-22T05:00:01.870Z,6.00
2023-03-22T05:02:28.677Z,6.17
2023-03-22T05:04:55.672Z,6.93
2023-03-22T05:07:22.415Z,6.87
2023-03-22T05:09:49.228Z,6.20
2023-03-22T05:12:16.043Z,6.27
2023-03-22T05:14:42.871Z,6.43
2023-03-22T05:17:11.068Z,6.10
2023-03-22T05:19:38.056Z,6.63
2023-03-22T05:22:04.948Z,5.90
2023-03-22T05:24:31.894Z,5.43
2023-03-22T05:27:00.997Z,5.07
2023-03-22T05:29:28.533Z,5.30
2023-03-22T05:31:55.311Z,5.87
2023-03-22T05:34:22.214Z,5.37
2023-03-22T05:36:51.434Z,5.43
2023-03-22T05:39:18.365Z,5.30
2023-03-22T05:41:46.337Z,5.40
2023-03-22T05:44:24.249Z,5.33
2023-03-22T05:46:51.148Z,5.20
2023-03-22T05:49:19.150Z,5.17
2023-03-22T05:51:46.086Z,5.70
2023-03-22T05:54:12.844Z,5.33
2023-03-22T05:56:40.623Z,4.90
2023-03-22T05:59:07.540Z,5.83
2023-03-22T06:01:34.781Z,4.60
2023-03-22T06:04:01.733Z,4.00
2023-03-22T06:06:28.570Z,4.40
2023-03-22T06:09:04.331Z,4.20
2023-03-22T06:11:41.121Z,4.73
2023-03-22T06:14:07.942Z,4.50
2023-03-22T06:16:34.705Z,4.87
2023-03-22T06:19:01.496Z,3.90
2023-03-22T06:21:28.282Z,4.00
2023-03-22T06:23:55.086Z,4.33
2023-03-22T06:26:21.773Z,4.13
2023-03-22T06:28:48.493Z,4.37
2023-03-22T06:31:15.470Z,3.60
2023-03-22T06:33:42.389Z,3.95
2023-03-22T06:36:09.590Z,3.80
2023-03-22T06:38:36.382Z,3.30
2023-03-22T06:41:03.281Z,3.50
2023-03-22T06:43:30.241Z,4.60
2023-03-22T06:46:01.105Z,3.10
2023-03-22T06:48:27.976Z,3.47
2023-03-22T06:50:54.777Z,3.07
2023-03-22T06:53:21.601Z,4.23
2023-03-22T06:55:48.409Z,2.50
2023-03-22T06:58:15.186Z,2.60
2023-03-22T07:00:42.342Z,2.67
2023-03-22T07:03:09.499Z,2.87
2023-03-22T07:05:36.297Z,4.57
2023-03-22T07:08:03.455Z,2.50
2023-03-22T07:10:31.085Z,1.80
2023-03-22T07:12:58.148Z,2.72
2023-03-22T07:15:25.015Z,2.40
2023-03-22T07:17:52.416Z,2.07
2023-03-22T07:20:20.600Z,2.00
2023-03-22T07:22:49.015Z,2.33
2023-03-22T07:25:18.744Z,1.77
2023-03-22T07:27:45.920Z,2.17
2023-03-22T07:30:13.412Z,1.80
2023-03-22T07:32:41.529Z,2.77
2023-03-22T07:35:08.758Z,1.85
2023-03-22T07:37:35.828Z,2.20
2023-03-22T07:40:04.280Z,2.92
2023-03-22T07:42:31.757Z,1.67
2023-03-22T07:44:58.588Z,1.87
2023-03-22T07:47:40.069Z,1.92
2023-03-22T07:50:10.109Z,2.40
2023-03-22T07:52:37.072Z,2.38
2023-03-22T07:55:04.941Z,1.48
2023-03-22T07:57:31.911Z,2.03
2023-03-22T08:00:06.272Z,1.40
2023-03-22T08:02:33.190Z,1.40
2023-03-22T08:04:59.921Z,1.95
2023-03-22T08:07:26.746Z,1.95
2023-03-22T08:09:53.593Z,1.63
2023-03-22T08:12:20.343Z,1.85
2023-03-22T08:14:50.853Z,2.33
2023-03-22T08:17:19.397Z,1.70
2023-03-22T08:19:46.428Z,1.85
2023-03-22T08:22:15.395Z,1.77
2023-03-22T08:24:43.199Z,1.55
2023-03-22T08:27:10.553Z,1.33
2023-03-22T08:29:37.283Z,1.63
2023-03-22T08:32:05.521Z,2.03
2023-03-22T08:34:37.129Z,2.15
2023-03-22T08:37:09.306Z,1.92
2023-03-22T08:39:36.962Z,2.03
2023-03-22T08:42:04.364Z,1.85
2023-03-22T08:44:31.522Z,1.80
2023-03-22T08:46:58.647Z,1.80
2023-03-22T08:49:26.494Z,2.35
2023-03-22T08:51:53.273Z,1.80
2023-03-22T08:54:20.085Z,1.50
2023-03-22T08:56:46.886Z,1.65
2023-03-22T08:59:13.659Z,1.63
2023-03-22T09:01:40.584Z,1.95
2023-03-22T09:04:10.195Z,1.50
2023-03-22T09:06:37.526Z,1.63
2023-03-22T09:09:13.061Z,2.08
2023-03-22T09:11:41.278Z,1.60
2023-03-22T09:14:10.667Z,1.85
2023-03-22T09:16:37.677Z,1.65
2023-03-22T09:19:04.737Z,1.63
2023-03-22T09:21:31.472Z,1.95
2023-03-22T09:23:58.292Z,1.90
2023-03-22T09:26:27.109Z,2.10
2023-03-22T09:28:53.927Z,1.83
2023-03-22T09:31:21.260Z,2.58
2023-03-22T09:33:48.245Z,1.65
2023-03-22T09:36:15.738Z,1.83
2023-03-22T09:38:42.759Z,1.75
2023-03-22T09:41:21.363Z,2.38
2023-03-22T09:44:06.729Z,1.70
2023-03-22T09:46:44.238Z,2.08
2023-03-22T09:49:20.040Z,2.45
2023-03-22T09:51:53.736Z,1.60
2023-03-22T09:54:38.789Z,2.38
2023-03-22T09:57:17.506Z,1.75
2023-03-22T10:00:11.080Z,2.03
2023-03-22T10:02:48.922Z,1.90
2023-03-22T10:06:12.554Z,1.90
2023-03-22T10:09:13.980Z,1.77
2023-03-22T10:12:19.136Z,1.80
2023-03-22T10:15:05.115Z,1.77
2023-03-22T10:17:32.403Z,1.60
2023-03-22T10:20:21.280Z,1.80
2023-03-22T10:22:53.279Z,1.60
2023-03-22T10:25:32.858Z,1.75
2023-03-22T10:27:59.652Z,1.65
2023-03-22T10:30:34.652Z,1.42
2023-03-22T10:33:15.819Z,1.50
2023-03-22T10:35:44.093Z,1.77
2023-03-22T10:38:24.710Z,1.77
2023-03-22T10:40:57.041Z,1.70
2023-03-22T10:43:39.965Z,1.60
2023-03-22T10:46:18.231Z,1.70
2023-03-22T10:48:50.809Z,1.75
2023-03-22T10:51:39.655Z,1.23
2023-03-22T10:54:13.242Z,1.55
2023-03-22T10:56:40.117Z,1.33
2023-03-22T10:59:07.107Z,1.47
2023-03-22T11:01:43.838Z,1.45
2023-03-22T11:04:16.105Z,1.60
2023-03-22T11:06:54.748Z,1.65
2023-03-22T11:09:24.584Z,1.73
2023-03-22T11:11:58.324Z,1.83
2023-03-22T11:14:33.894Z,2.33
2023-03-22T11:17:14.093Z,2.13
2023-03-22T11:19:58.921Z,1.73
2023-03-22T11:22:34.489Z,1.60
2023-03-22T11:25:03.170Z,1.67
2023-03-22T11:27:33.843Z,1.90
2023-03-22T11:30:36.426Z,1.75
2023-03-22T11:33:18.973Z,1.45
2023-03-22T11:35:57.105Z,2.38
2023-03-22T11:38:29.965Z,2.13
2023-03-22T11:41:05.148Z,1.75
2023-03-22T11:43:42.553Z,2.15
2023-03-22T11:46:12.322Z,1.50
2023-03-22T11:48:42.666Z,1.70
2023-03-22T11:51:14.016Z,2.00
2023-03-22T11:53:46.448Z,1.65
2023-03-22T11:56:25.857Z,1.60
2023-03-22T11:59:08.392Z,2.70
2023-03-22T12:01:51.483Z,1.75
2023-03-22T12:04:27.774Z,1.75
2023-03-22T12:07:00.453Z,1.65
2023-03-22T12:10:01.855Z,1.65
2023-03-22T12:12:40.437Z,2.60
2023-03-22T12:15:22.807Z,1.50
2023-03-22T12:18:38.800Z,1.55
2023-03-22T12:21:06.553Z,1.70
2023-03-22T12:23:35.698Z,2.00
2023-03-22T12:26:21.560Z,1.95
2023-03-22T12:29:18.252Z,1.55
2023-03-22T12:32:29.844Z,1.80
2023-03-22T12:35:05.460Z,1.48
2023-03-22T12:37:47.988Z,1.63
2023-03-22T12:40:42.227Z,1.65
2023-03-22T12:43:42.175Z,1.45
2023-03-22T12:46:20.340Z,1.60
2023-03-22T12:48:58.612Z,1.38
2023-03-22T12:51:25.677Z,2.38
2023-03-22T12:53:58.817Z,1.63
2023-03-22T12:56:40.139Z,2.55
2023-03-22T12:59:30.400Z,1.73
2023-03-22T13:02:32.568Z,2.08
2023-03-22T13:05:05.303Z,1.60
2023-03-22T13:07:51.838Z,1.60
2023-03-22T13:10:31.232Z,2.47
2023-03-22T13:13:23.513Z,1.88
2023-03-22T13:16:03.107Z,2.00
2023-03-22T13:18:37.883Z,1.85
2023-03-22T13:21:23.670Z,1.70
2023-03-22T13:24:05.835Z,1.65
2023-03-22T13:26:51.369Z,1.92
2023-03-22T13:29:38.319Z,1.85
2023-03-22T13:32:30.801Z,1.92
2023-03-22T13:34:57.745Z,1.63
2023-03-22T13:37:49.321Z,1.80
2023-03-22T13:41:00.650Z,1.92
2023-03-22T13:43:39.549Z,1.90
2023-03-22T13:46:20.440Z,1.70
2023-03-22T13:49:12.450Z,1.42
2023-03-22T13:51:40.935Z,1.75
2023-03-22T13:54:18.334Z,1.50
2023-03-22T13:56:56.440Z,1.60
2023-03-22T13:59:27.198Z,1.80
2023-03-22T14:02:05.636Z,1.77
2023-03-22T14:04:47.674Z,2.15
2023-03-22T14:07:28.396Z,1.63
2023-03-22T14:10:13.157Z,1.42
2023-03-22T14:13:04.728Z,1.20
2023-03-22T14:15:49.811Z,1.92
2023-03-22T14:18:39.149Z,1.90
2023-03-22T14:21:12.661Z,1.75
